sensor_id;sensor_type;location;lat;lon;timestamp;P1;durP1;ratioP1;P2;durP2;ratioP2
25948;SDS011;13961;51.178;4.448;2023-04-25T00:00:53;11.25;;;2.40;;
25948;SDS011;13961;51.178;4.448;2023-04-25T00:03:19;11.23;;;2.63;;
25948;SDS011;13961;51.178;4.448;2023-04-25T00:05:46;8.18;;;2.30;;
25948;SDS011;13961;51.178;4.448;2023-04-25T00:08:15;11.43;;;2.85;;
25948;SDS011;13961;51.178;4.448;2023-04-25T00:10:43;12.43;;;2.65;;
25948;SDS011;13961;51.178;4.448;2023-04-25T00:13:09;12.00;;;2.83;;
25948;SDS011;13961;51.178;4.448;2023-04-25T00:15:37;15.60;;;3.00;;
25948;SDS011;13961;51.178;4.448;2023-04-25T00:18:04;11.27;;;3.00;;
25948;SDS011;13961;51.178;4.448;2023-04-25T00:20:32;10.63;;;2.38;;
25948;SDS011;13961;51.178;4.448;2023-04-25T00:22:58;9.02;;;2.65;;
25948;SDS011;13961;51.178;4.448;2023-04-25T00:25:23;11.88;;;2.72;;
25948;SDS011;13961;51.178;4.448;2023-04-25T00:27:50;9.43;;;2.30;;
25948;SDS011;13961;51.178;4.448;2023-04-25T00:30:16;11.02;;;2.60;;
25948;SDS011;13961;51.178;4.448;2023-04-25T00:35:11;11.27;;;2.80;;
25948;SDS011;13961;51.178;4.448;2023-04-25T00:37:37;11.00;;;2.50;;
25948;SDS011;13961;51.178;4.448;2023-04-25T00:40:04;12.23;;;2.45;;
25948;SDS011;13961;51.178;4.448;2023-04-25T00:42:31;7.28;;;2.13;;
25948;SDS011;13961;51.178;4.448;2023-04-25T00:44:57;11.10;;;2.30;;
25948;SDS011;13961;51.178;4.448;2023-04-25T00:47:24;8.50;;;2.40;;
25948;SDS011;13961;51.178;4.448;2023-04-25T00:49:50;14.70;;;3.13;;
25948;SDS011;13961;51.178;4.448;2023-04-25T00:52:18;10.80;;;2.63;;
25948;SDS011;13961;51.178;4.448;2023-04-25T00:54:44;13.52;;;2.97;;
25948;SDS011;13961;51.178;4.448;2023-04-25T00:57:10;11.52;;;3.28;;
25948;SDS011;13961;51.178;4.448;2023-04-25T00:59:37;11.05;;;2.53;;
25948;SDS011;13961;51.178;4.448;2023-04-25T01:02:04;15.18;;;2.92;;
25948;SDS011;13961;51.178;4.448;2023-04-25T01:04:31;8.93;;;2.80;;
25948;SDS011;13961;51.178;4.448;2023-04-25T01:06:57;11.68;;;3.25;;
25948;SDS011;13961;51.178;4.448;2023-04-25T01:09:23;14.63;;;2.78;;
25948;SDS011;13961;51.178;4.448;2023-04-25T01:11:49;9.98;;;2.97;;
25948;SDS011;13961;51.178;4.448;2023-04-25T01:14:17;9.35;;;2.97;;
25948;SDS011;13961;51.178;4.448;2023-04-25T01:16:44;13.52;;;3.20;;
25948;SDS011;13961;51.178;4.448;2023-04-25T01:19:10;15.02;;;3.38;;
25948;SDS011;13961;51.178;4.448;2023-04-25T01:21:38;13.48;;;3.10;;
25948;SDS011;13961;51.178;4.448;2023-04-25T01:24:05;15.13;;;3.00;;
25948;SDS011;13961;51.178;4.448;2023-04-25T01:26:31;19.25;;;2.58;;
25948;SDS011;13961;51.178;4.448;2023-04-25T01:28:58;12.80;;;2.60;;
25948;SDS011;13961;51.178;4.448;2023-04-25T01:31:25;16.55;;;3.20;;
25948;SDS011;13961;51.178;4.448;2023-04-25T01:33:52;13.32;;;3.00;;
25948;SDS011;13961;51.178;4.448;2023-04-25T01:36:18;14.38;;;2.92;;
25948;SDS011;13961;51.178;4.448;2023-04-25T01:38:44;15.60;;;3.03;;
25948;SDS011;13961;51.178;4.448;2023-04-25T01:41:13;14.60;;;3.33;;
25948;SDS011;13961;51.178;4.448;2023-04-25T01:43:40;12.60;;;2.88;;
25948;SDS011;13961;51.178;4.448;2023-04-25T01:46:07;12.27;;;3.17;;
25948;SDS011;13961;51.178;4.448;2023-04-25T01:48:33;11.38;;;3.15;;
25948;SDS011;13961;51.178;4.448;2023-04-25T01:50:59;7.50;;;2.70;;
25948;SDS011;13961;51.178;4.448;2023-04-25T01:53:26;12.10;;;3.03;;
25948;SDS011;13961;51.178;4.448;2023-04-25T01:55:52;15.35;;;3.10;;
25948;SDS011;13961;51.178;4.448;2023-04-25T01:58:20;11.73;;;2.92;;
25948;SDS011;13961;51.178;4.448;2023-04-25T02:00:46;13.20;;;2.80;;
25948;SDS011;13961;51.178;4.448;2023-04-25T02:03:13;11.52;;;3.25;;
25948;SDS011;13961;51.178;4.448;2023-04-25T02:05:39;13.32;;;2.92;;
25948;SDS011;13961;51.178;4.448;2023-04-25T02:08:05;14.88;;;3.35;;
25948;SDS011;13961;51.178;4.448;2023-04-25T02:10:32;12.13;;;2.80;;
25948;SDS011;13961;51.178;4.448;2023-04-25T02:12:59;16.50;;;3.10;;
25948;SDS011;13961;51.178;4.448;2023-04-25T02:15:26;14.93;;;2.80;;
25948;SDS011;13961;51.178;4.448;2023-04-25T02:17:53;13.82;;;3.45;;
25948;SDS011;13961;51.178;4.448;2023-04-25T02:20:20;15.95;;;3.88;;
25948;SDS011;13961;51.178;4.448;2023-04-25T02:22:46;17.65;;;3.92;;
25948;SDS011;13961;51.178;4.448;2023-04-25T02:25:13;18.92;;;3.95;;
25948;SDS011;13961;51.178;4.448;2023-04-25T02:27:41;15.25;;;3.70;;
25948;SDS011;13961;51.178;4.448;2023-04-25T02:30:08;12.45;;;3.15;;
25948;SDS011;13961;51.178;4.448;2023-04-25T02:32:34;17.15;;;3.65;;
25948;SDS011;13961;51.178;4.448;2023-04-25T02:35:00;16.27;;;3.58;;
25948;SDS011;13961;51.178;4.448;2023-04-25T02:37:31;10.45;;;3.28;;
25948;SDS011;13961;51.178;4.448;2023-04-25T02:39:57;14.63;;;3.13;;
25948;SDS011;13961;51.178;4.448;2023-04-25T02:42:23;14.73;;;3.45;;
25948;SDS011;13961;51.178;4.448;2023-04-25T02:44:50;13.77;;;3.35;;
25948;SDS011;13961;51.178;4.448;2023-04-25T02:47:17;15.98;;;3.70;;
25948;SDS011;13961;51.178;4.448;2023-04-25T02:49:42;12.32;;;3.67;;
25948;SDS011;13961;51.178;4.448;2023-04-25T02:52:08;11.80;;;3.47;;
25948;SDS011;13961;51.178;4.448;2023-04-25T02:54:34;14.52;;;3.75;;
25948;SDS011;13961;51.178;4.448;2023-04-25T02:56:59;26.45;;;3.22;;
25948;SDS011;13961;51.178;4.448;2023-04-25T02:59:27;12.52;;;3.95;;
25948;SDS011;13961;51.178;4.448;2023-04-25T03:01:54;16.67;;;3.53;;
25948;SDS011;13961;51.178;4.448;2023-04-25T03:04:20;13.02;;;3.90;;
25948;SDS011;13961;51.178;4.448;2023-04-25T03:06:48;19.30;;;4.10;;
25948;SDS011;13961;51.178;4.448;2023-04-25T03:09:15;12.10;;;3.58;;
25948;SDS011;13961;51.178;4.448;2023-04-25T03:11:41;18.92;;;4.45;;
25948;SDS011;13961;51.178;4.448;2023-04-25T03:14:07;18.77;;;4.35;;
25948;SDS011;13961;51.178;4.448;2023-04-25T03:16:33;13.85;;;3.67;;
25948;SDS011;13961;51.178;4.448;2023-04-25T03:18:59;10.98;;;3.45;;
25948;SDS011;13961;51.178;4.448;2023-04-25T03:21:24;13.20;;;3.95;;
25948;SDS011;13961;51.178;4.448;2023-04-25T03:23:53;10.40;;;3.72;;
25948;SDS011;13961;51.178;4.448;2023-04-25T03:26:19;13.85;;;3.72;;
25948;SDS011;13961;51.178;4.448;2023-04-25T03:28:45;20.85;;;4.35;;
25948;SDS011;13961;51.178;4.448;2023-04-25T03:31:11;21.35;;;4.63;;
25948;SDS011;13961;51.178;4.448;2023-04-25T03:33:39;19.27;;;4.47;;
25948;SDS011;13961;51.178;4.448;2023-04-25T03:36:04;14.48;;;4.20;;
25948;SDS011;13961;51.178;4.448;2023-04-25T03:38:30;24.00;;;4.57;;
25948;SDS011;13961;51.178;4.448;2023-04-25T03:40:56;15.95;;;4.30;;
25948;SDS011;13961;51.178;4.448;2023-04-25T03:43:22;15.65;;;3.53;;
25948;SDS011;13961;51.178;4.448;2023-04-25T03:45:48;12.52;;;3.58;;
25948;SDS011;13961;51.178;4.448;2023-04-25T03:48:14;12.38;;;3.63;;
25948;SDS011;13961;51.178;4.448;2023-04-25T03:50:40;10.95;;;3.35;;
25948;SDS011;13961;51.178;4.448;2023-04-25T03:53:08;18.85;;;3.72;;
25948;SDS011;13961;51.178;4.448;2023-04-25T03:55:33;13.90;;;3.95;;
25948;SDS011;13961;51.178;4.448;2023-04-25T03:58:00;21.55;;;3.92;;
25948;SDS011;13961;51.178;4.448;2023-04-25T04:00:26;14.43;;;3.40;;
25948;SDS011;13961;51.178;4.448;2023-04-25T04:02:52;15.10;;;4.00;;
25948;SDS011;13961;51.178;4.448;2023-04-25T04:05:17;17.65;;;4.78;;
25948;SDS011;13961;51.178;4.448;2023-04-25T04:07:43;15.27;;;3.47;;
25948;SDS011;13961;51.178;4.448;2023-04-25T04:10:09;13.30;;;3.65;;
25948;SDS011;13961;51.178;4.448;2023-04-25T04:12:36;16.20;;;4.15;;
25948;SDS011;13961;51.178;4.448;2023-04-25T04:15:02;15.50;;;4.07;;
25948;SDS011;13961;51.178;4.448;2023-04-25T04:17:29;21.63;;;4.03;;
25948;SDS011;13961;51.178;4.448;2023-04-25T04:19:55;14.00;;;3.67;;
25948;SDS011;13961;51.178;4.448;2023-04-25T04:22:22;16.13;;;3.85;;
25948;SDS011;13961;51.178;4.448;2023-04-25T04:24:48;14.50;;;3.38;;
25948;SDS011;13961;51.178;4.448;2023-04-25T04:27:15;11.30;;;3.17;;
25948;SDS011;13961;51.178;4.448;2023-04-25T04:29:44;13.65;;;3.05;;
25948;SDS011;13961;51.178;4.448;2023-04-25T04:32:11;15.55;;;3.17;;
25948;SDS011;13961;51.178;4.448;2023-04-25T04:34:37;8.82;;;2.67;;
25948;SDS011;13961;51.178;4.448;2023-04-25T04:37:04;12.73;;;2.90;;
25948;SDS011;13961;51.178;4.448;2023-04-25T04:39:32;9.55;;;2.40;;
25948;SDS011;13961;51.178;4.448;2023-04-25T04:41:58;8.63;;;3.47;;
25948;SDS011;13961;51.178;4.448;2023-04-25T04:44:24;15.68;;;2.70;;
25948;SDS011;13961;51.178;4.448;2023-04-25T04:46:51;8.88;;;2.65;;
25948;SDS011;13961;51.178;4.448;2023-04-25T04:49:16;12.18;;;2.97;;
25948;SDS011;13961;51.178;4.448;2023-04-25T04:51:42;7.50;;;2.53;;
25948;SDS011;13961;51.178;4.448;2023-04-25T04:54:12;7.47;;;2.45;;
25948;SDS011;13961;51.178;4.448;2023-04-25T04:56:38;12.70;;;2.90;;
25948;SDS011;13961;51.178;4.448;2023-04-25T04:59:04;12.45;;;2.70;;
25948;SDS011;13961;51.178;4.448;2023-04-25T05:01:31;7.38;;;2.85;;
25948;SDS011;13961;51.178;4.448;2023-04-25T05:03:57;10.45;;;2.55;;
25948;SDS011;13961;51.178;4.448;2023-04-25T05:06:25;14.55;;;3.13;;
25948;SDS011;13961;51.178;4.448;2023-04-25T05:08:52;9.70;;;2.20;;
25948;SDS011;13961;51.178;4.448;2023-04-25T05:11:22;11.20;;;2.70;;
25948;SDS011;13961;51.178;4.448;2023-04-25T05:13:53;10.25;;;2.67;;
25948;SDS011;13961;51.178;4.448;2023-04-25T05:16:20;7.93;;;3.00;;
25948;SDS011;13961;51.178;4.448;2023-04-25T05:18:47;14.52;;;3.00;;
25948;SDS011;13961;51.178;4.448;2023-04-25T05:21:13;10.40;;;2.90;;
25948;SDS011;13961;51.178;4.448;2023-04-25T05:23:39;8.85;;;2.67;;
25948;SDS011;13961;51.178;4.448;2023-04-25T05:26:05;15.15;;;3.25;;
25948;SDS011;13961;51.178;4.448;2023-04-25T05:28:31;7.70;;;2.85;;
25948;SDS011;13961;51.178;4.448;2023-04-25T05:30:57;9.82;;;2.65;;
25948;SDS011;13961;51.178;4.448;2023-04-25T05:33:23;13.63;;;3.05;;
25948;SDS011;13961;51.178;4.448;2023-04-25T05:38:18;14.52;;;3.25;;
25948;SDS011;13961;51.178;4.448;2023-04-25T05:40:45;17.20;;;3.17;;
25948;SDS011;13961;51.178;4.448;2023-04-25T05:43:11;8.93;;;2.83;;
25948;SDS011;13961;51.178;4.448;2023-04-25T05:45:36;13.68;;;3.40;;
25948;SDS011;13961;51.178;4.448;2023-04-25T05:48:02;11.20;;;3.70;;
25948;SDS011;13961;51.178;4.448;2023-04-25T05:50:28;10.23;;;3.13;;
25948;SDS011;13961;51.178;4.448;2023-04-25T05:52:56;14.10;;;3.00;;
25948;SDS011;13961;51.178;4.448;2023-04-25T05:55:22;17.27;;;3.88;;
25948;SDS011;13961;51.178;4.448;2023-04-25T05:57:48;13.27;;;2.75;;
25948;SDS011;13961;51.178;4.448;2023-04-25T06:00:14;11.48;;;3.03;;
25948;SDS011;13961;51.178;4.448;2023-04-25T06:02:40;7.75;;;2.70;;
25948;SDS011;13961;51.178;4.448;2023-04-25T06:05:07;10.30;;;3.22;;
25948;SDS011;13961;51.178;4.448;2023-04-25T06:07:33;11.57;;;2.90;;
25948;SDS011;13961;51.178;4.448;2023-04-25T06:10:00;15.85;;;3.50;;
25948;SDS011;13961;51.178;4.448;2023-04-25T06:12:26;10.43;;;2.53;;
25948;SDS011;13961;51.178;4.448;2023-04-25T06:14:52;10.98;;;2.60;;
25948;SDS011;13961;51.178;4.448;2023-04-25T06:17:17;9.35;;;2.05;;
25948;SDS011;13961;51.178;4.448;2023-04-25T06:19:43;10.65;;;2.88;;
25948;SDS011;13961;51.178;4.448;2023-04-25T06:22:09;9.15;;;2.20;;
25948;SDS011;13961;51.178;4.448;2023-04-25T06:24:35;10.52;;;2.85;;
25948;SDS011;13961;51.178;4.448;2023-04-25T06:27:01;6.35;;;2.10;;
25948;SDS011;13961;51.178;4.448;2023-04-25T06:29:27;11.90;;;2.60;;
25948;SDS011;13961;51.178;4.448;2023-04-25T06:31:53;11.63;;;2.30;;
25948;SDS011;13961;51.178;4.448;2023-04-25T06:34:19;11.57;;;2.20;;
25948;SDS011;13961;51.178;4.448;2023-04-25T06:36:45;8.23;;;2.30;;
25948;SDS011;13961;51.178;4.448;2023-04-25T06:39:11;6.15;;;2.08;;
25948;SDS011;13961;51.178;4.448;2023-04-25T06:41:37;8.73;;;1.90;;
25948;SDS011;13961;51.178;4.448;2023-04-25T06:44:02;7.30;;;2.20;;
25948;SDS011;13961;51.178;4.448;2023-04-25T06:46:28;5.68;;;2.03;;
25948;SDS011;13961;51.178;4.448;2023-04-25T06:48:57;7.30;;;2.40;;
25948;SDS011;13961;51.178;4.448;2023-04-25T06:51:23;5.50;;;2.00;;
25948;SDS011;13961;51.178;4.448;2023-04-25T06:56:18;9.32;;;2.03;;
25948;SDS011;13961;51.178;4.448;2023-04-25T06:58:43;6.70;;;2.42;;
25948;SDS011;13961;51.178;4.448;2023-04-25T07:01:11;12.15;;;2.00;;
25948;SDS011;13961;51.178;4.448;2023-04-25T07:03:38;7.45;;;2.05;;
25948;SDS011;13961;51.178;4.448;2023-04-25T07:06:04;10.18;;;1.83;;
25948;SDS011;13961;51.178;4.448;2023-04-25T07:08:29;4.93;;;1.52;;
25948;SDS011;13961;51.178;4.448;2023-04-25T07:10:55;11.77;;;2.17;;
25948;SDS011;13961;51.178;4.448;2023-04-25T07:13:22;9.63;;;2.15;;
25948;SDS011;13961;51.178;4.448;2023-04-25T07:15:47;9.13;;;1.73;;
25948;SDS011;13961;51.178;4.448;2023-04-25T07:18:14;9.95;;;2.20;;
25948;SDS011;13961;51.178;4.448;2023-04-25T07:20:41;6.82;;;2.28;;
25948;SDS011;13961;51.178;4.448;2023-04-25T07:23:06;10.55;;;2.33;;
25948;SDS011;13961;51.178;4.448;2023-04-25T07:25:33;10.10;;;2.30;;
25948;SDS011;13961;51.178;4.448;2023-04-25T07:28:00;10.13;;;1.83;;
25948;SDS011;13961;51.178;4.448;2023-04-25T07:30:25;7.55;;;1.77;;
25948;SDS011;13961;51.178;4.448;2023-04-25T07:32:51;9.50;;;1.90;;
25948;SDS011;13961;51.178;4.448;2023-04-25T07:35:17;10.85;;;1.63;;
25948;SDS011;13961;51.178;4.448;2023-04-25T07:37:44;7.20;;;1.80;;
25948;SDS011;13961;51.178;4.448;2023-04-25T07:40:10;6.88;;;1.80;;
25948;SDS011;13961;51.178;4.448;2023-04-25T07:42:37;9.30;;;2.20;;
25948;SDS011;13961;51.178;4.448;2023-04-25T07:45:02;14.77;;;2.00;;
25948;SDS011;13961;51.178;4.448;2023-04-25T07:47:28;7.97;;;1.95;;
25948;SDS011;13961;51.178;4.448;2023-04-25T07:49:54;5.60;;;2.03;;
25948;SDS011;13961;51.178;4.448;2023-04-25T07:52:21;6.72;;;2.03;;
25948;SDS011;13961;51.178;4.448;2023-04-25T07:54:46;8.88;;;2.15;;
25948;SDS011;13961;51.178;4.448;2023-04-25T07:57:12;8.18;;;2.17;;
25948;SDS011;13961;51.178;4.448;2023-04-25T07:59:39;9.65;;;1.63;;
25948;SDS011;13961;51.178;4.448;2023-04-25T08:02:05;7.03;;;1.65;;
25948;SDS011;13961;51.178;4.448;2023-04-25T08:04:30;7.75;;;2.40;;
25948;SDS011;13961;51.178;4.448;2023-04-25T08:06:56;6.93;;;1.67;;
25948;SDS011;13961;51.178;4.448;2023-04-25T08:09:22;7.70;;;1.73;;
25948;SDS011;13961;51.178;4.448;2023-04-25T08:11:48;5.10;;;1.50;;
25948;SDS011;13961;51.178;4.448;2023-04-25T08:14:14;9.50;;;1.40;;
25948;SDS011;13961;51.178;4.448;2023-04-25T08:16:42;5.43;;;1.38;;
25948;SDS011;13961;51.178;4.448;2023-04-25T08:19:08;5.15;;;1.33;;
25948;SDS011;13961;51.178;4.448;2023-04-25T08:21:36;4.63;;;0.90;;
25948;SDS011;13961;51.178;4.448;2023-04-25T08:24:01;8.52;;;1.20;;
25948;SDS011;13961;51.178;4.448;2023-04-25T08:26:28;5.53;;;1.25;;
25948;SDS011;13961;51.178;4.448;2023-04-25T08:28:55;5.30;;;1.63;;
25948;SDS011;13961;51.178;4.448;2023-04-25T08:31:20;4.55;;;1.20;;
25948;SDS011;13961;51.178;4.448;2023-04-25T08:33:46;3.83;;;1.27;;
25948;SDS011;13961;51.178;4.448;2023-04-25T08:36:13;4.75;;;1.10;;
25948;SDS011;13961;51.178;4.448;2023-04-25T08:38:39;3.17;;;1.15;;
25948;SDS011;13961;51.178;4.448;2023-04-25T08:41:05;6.15;;;1.27;;
25948;SDS011;13961;51.178;4.448;2023-04-25T08:43:31;4.97;;;1.10;;
25948;SDS011;13961;51.178;4.448;2023-04-25T08:46:02;2.92;;;1.02;;
25948;SDS011;13961;51.178;4.448;2023-04-25T08:48:28;5.03;;;1.42;;
25948;SDS011;13961;51.178;4.448;2023-04-25T08:50:57;4.90;;;1.50;;
25948;SDS011;13961;51.178;4.448;2023-04-25T08:53:28;4.22;;;1.30;;
25948;SDS011;13961;51.178;4.448;2023-04-25T08:55:56;3.55;;;1.10;;
25948;SDS011;13961;51.178;4.448;2023-04-25T08:58:23;4.50;;;1.17;;
25948;SDS011;13961;51.178;4.448;2023-04-25T09:00:49;5.60;;;0.93;;
25948;SDS011;13961;51.178;4.448;2023-04-25T09:03:16;5.50;;;1.30;;
25948;SDS011;13961;51.178;4.448;2023-04-25T09:05:42;3.70;;;1.35;;
25948;SDS011;13961;51.178;4.448;2023-04-25T09:08:08;5.30;;;1.52;;
25948;SDS011;13961;51.178;4.448;2023-04-25T09:10:34;7.70;;;1.52;;
25948;SDS011;13961;51.178;4.448;2023-04-25T09:16:13;4.85;;;1.48;;
25948;SDS011;13961;51.178;4.448;2023-04-25T09:18:33;8.25;;;1.40;;
25948;SDS011;13961;51.178;4.448;2023-04-25T09:21:07;7.53;;;1.00;;
25948;SDS011;13961;51.178;4.448;2023-04-25T09:26:08;7.00;;;1.40;;
25948;SDS011;13961;51.178;4.448;2023-04-25T09:28:34;6.50;;;1.40;;
25948;SDS011;13961;51.178;4.448;2023-04-25T09:31:01;4.85;;;1.45;;
25948;SDS011;13961;51.178;4.448;2023-04-25T09:33:28;4.47;;;1.20;;
25948;SDS011;13961;51.178;4.448;2023-04-25T09:36:01;4.47;;;1.30;;
25948;SDS011;13961;51.178;4.448;2023-04-25T09:38:29;7.05;;;1.30;;
25948;SDS011;13961;51.178;4.448;2023-04-25T09:41:11;3.03;;;0.95;;
25948;SDS011;13961;51.178;4.448;2023-04-25T09:43:37;8.80;;;1.15;;
25948;SDS011;13961;51.178;4.448;2023-04-25T09:46:13;1.80;;;0.60;;
25948;SDS011;13961;51.178;4.448;2023-04-25T09:48:38;4.43;;;1.10;;
25948;SDS011;13961;51.178;4.448;2023-04-25T09:51:05;5.05;;;0.95;;
25948;SDS011;13961;51.178;4.448;2023-04-25T09:53:31;1.75;;;0.73;;
25948;SDS011;13961;51.178;4.448;2023-04-25T09:56:03;1.52;;;0.50;;
25948;SDS011;13961;51.178;4.448;2023-04-25T09:58:30;6.50;;;1.08;;
25948;SDS011;13961;51.178;4.448;2023-04-25T10:01:00;6.70;;;1.20;;
25948;SDS011;13961;51.178;4.448;2023-04-25T10:03:29;4.45;;;1.00;;
25948;SDS011;13961;51.178;4.448;2023-04-25T10:06:01;6.35;;;1.00;;
25948;SDS011;13961;51.178;4.448;2023-04-25T10:08:31;3.67;;;0.93;;
25948;SDS011;13961;51.178;4.448;2023-04-25T10:11:00;4.20;;;0.90;;
25948;SDS011;13961;51.178;4.448;2023-04-25T10:13:27;4.53;;;0.98;;
25948;SDS011;13961;51.178;4.448;2023-04-25T10:15:55;3.92;;;1.00;;
25948;SDS011;13961;51.178;4.448;2023-04-25T10:18:24;3.85;;;1.10;;
25948;SDS011;13961;51.178;4.448;2023-04-25T10:20:50;7.85;;;1.15;;
25948;SDS011;13961;51.178;4.448;2023-04-25T10:23:16;5.35;;;1.00;;
25948;SDS011;13961;51.178;4.448;2023-04-25T10:25:43;4.25;;;1.00;;
25948;SDS011;13961;51.178;4.448;2023-04-25T10:28:09;4.88;;;0.90;;
25948;SDS011;13961;51.178;4.448;2023-04-25T10:30:35;7.18;;;1.38;;
25948;SDS011;13961;51.178;4.448;2023-04-25T10:33:01;4.97;;;1.10;;
25948;SDS011;13961;51.178;4.448;2023-04-25T10:35:27;4.32;;;0.88;;
25948;SDS011;13961;51.178;4.448;2023-04-25T10:38:05;4.93;;;1.42;;
25948;SDS011;13961;51.178;4.448;2023-04-25T10:40:34;4.05;;;1.00;;
25948;SDS011;13961;51.178;4.448;2023-04-25T10:48:43;2.85;;;1.40;;
25948;SDS011;13961;51.178;4.448;2023-04-25T10:51:17;5.45;;;1.20;;
25948;SDS011;13961;51.178;4.448;2023-04-25T10:53:44;3.53;;;1.10;;
25948;SDS011;13961;51.178;4.448;2023-04-25T10:56:23;4.85;;;1.25;;
25948;SDS011;13961;51.178;4.448;2023-04-25T10:59:02;5.60;;;1.30;;
25948;SDS011;13961;51.178;4.448;2023-04-25T11:01:47;5.35;;;1.00;;
25948;SDS011;13961;51.178;4.448;2023-04-25T11:04:26;3.63;;;1.40;;
25948;SDS011;13961;51.178;4.448;2023-04-25T11:07:48;2.22;;;1.20;;
25948;SDS011;13961;51.178;4.448;2023-04-25T11:09:47;5.18;;;1.33;;
25948;SDS011;13961;51.178;4.448;2023-04-25T11:12:14;2.85;;;1.00;;
25948;SDS011;13961;51.178;4.448;2023-04-25T11:14:42;4.97;;;1.30;;
25948;SDS011;13961;51.178;4.448;2023-04-25T11:17:08;5.50;;;1.20;;
25948;SDS011;13961;51.178;4.448;2023-04-25T11:19:34;3.45;;;1.00;;
25948;SDS011;13961;51.178;4.448;2023-04-25T11:22:00;3.80;;;1.15;;
25948;SDS011;13961;51.178;4.448;2023-04-25T11:24:32;3.33;;;1.00;;
25948;SDS011;13961;51.178;4.448;2023-04-25T11:27:01;3.92;;;1.20;;
25948;SDS011;13961;51.178;4.448;2023-04-25T11:29:34;4.43;;;1.20;;
25948;SDS011;13961;51.178;4.448;2023-04-25T11:32:01;7.68;;;1.55;;
25948;SDS011;13961;51.178;4.448;2023-04-25T11:34:30;2.40;;;0.80;;
25948;SDS011;13961;51.178;4.448;2023-04-25T11:36:59;3.80;;;0.90;;
25948;SDS011;13961;51.178;4.448;2023-04-25T11:39:25;4.47;;;1.00;;
25948;SDS011;13961;51.178;4.448;2023-04-25T11:41:52;3.22;;;0.90;;
25948;SDS011;13961;51.178;4.448;2023-04-25T11:44:18;3.50;;;0.88;;
25948;SDS011;13961;51.178;4.448;2023-04-25T11:46:45;4.28;;;0.90;;
25948;SDS011;13961;51.178;4.448;2023-04-25T11:49:12;3.00;;;0.98;;
25948;SDS011;13961;51.178;4.448;2023-04-25T11:51:42;5.70;;;1.00;;
25948;SDS011;13961;51.178;4.448;2023-04-25T11:54:10;2.03;;;0.80;;
25948;SDS011;13961;51.178;4.448;2023-04-25T11:56:40;3.90;;;0.95;;
25948;SDS011;13961;51.178;4.448;2023-04-25T11:59:07;8.73;;;1.05;;
25948;SDS011;13961;51.178;4.448;2023-04-25T12:01:34;4.45;;;1.05;;
25948;SDS011;13961;51.178;4.448;2023-04-25T12:06:57;4.38;;;1.10;;
25948;SDS011;13961;51.178;4.448;2023-04-25T12:09:29;7.55;;;1.25;;
25948;SDS011;13961;51.178;4.448;2023-04-25T12:11:57;5.00;;;0.70;;
25948;SDS011;13961;51.178;4.448;2023-04-25T12:14:31;4.45;;;0.90;;
25948;SDS011;13961;51.178;4.448;2023-04-25T12:17:00;3.53;;;0.95;;
25948;SDS011;13961;51.178;4.448;2023-04-25T12:19:37;4.32;;;1.00;;
25948;SDS011;13961;51.178;4.448;2023-04-25T12:22:18;3.90;;;0.95;;
25948;SDS011;13961;51.178;4.448;2023-04-25T12:24:48;4.43;;;1.17;;
25948;SDS011;13961;51.178;4.448;2023-04-25T12:27:14;3.38;;;1.00;;
25948;SDS011;13961;51.178;4.448;2023-04-25T12:29:49;3.58;;;1.27;;
25948;SDS011;13961;51.178;4.448;2023-04-25T12:32:19;5.38;;;0.98;;
25948;SDS011;13961;51.178;4.448;2023-04-25T12:34:46;3.22;;;0.68;;
25948;SDS011;13961;51.178;4.448;2023-04-25T12:37:12;4.18;;;0.75;;
25948;SDS011;13961;51.178;4.448;2023-04-25T12:39:38;5.15;;;1.10;;
25948;SDS011;13961;51.178;4.448;2023-04-25T12:42:04;1.73;;;0.82;;
25948;SDS011;13961;51.178;4.448;2023-04-25T12:44:34;3.00;;;0.50;;
25948;SDS011;13961;51.178;4.448;2023-04-25T12:47:00;4.53;;;0.93;;
25948;SDS011;13961;51.178;4.448;2023-04-25T12:49:25;6.45;;;1.20;;
25948;SDS011;13961;51.178;4.448;2023-04-25T12:51:52;4.35;;;0.98;;
25948;SDS011;13961;51.178;4.448;2023-04-25T12:54:18;2.72;;;1.17;;
25948;SDS011;13961;51.178;4.448;2023-04-25T12:56:43;4.63;;;1.35;;
25948;SDS011;13961;51.178;4.448;2023-04-25T12:59:09;7.05;;;1.33;;
25948;SDS011;13961;51.178;4.448;2023-04-25T13:01:35;6.13;;;1.17;;
25948;SDS011;13961;51.178;4.448;2023-04-25T13:04:00;6.22;;;1.50;;
25948;SDS011;13961;51.178;4.448;2023-04-25T13:06:26;6.32;;;1.67;;
25948;SDS011;13961;51.178;4.448;2023-04-25T13:08:52;4.88;;;0.93;;
25948;SDS011;13961;51.178;4.448;2023-04-25T13:11:18;4.13;;;0.93;;
25948;SDS011;13961;51.178;4.448;2023-04-25T13:13:46;5.35;;;0.93;;
25948;SDS011;13961;51.178;4.448;2023-04-25T13:16:12;5.32;;;0.90;;
25948;SDS011;13961;51.178;4.448;2023-04-25T13:18:41;3.88;;;1.08;;
25948;SDS011;13961;51.178;4.448;2023-04-25T13:21:07;9.52;;;1.25;;
25948;SDS011;13961;51.178;4.448;2023-04-25T13:23:35;2.45;;;0.75;;
25948;SDS011;13961;51.178;4.448;2023-04-25T13:26:01;3.33;;;1.00;;
25948;SDS011;13961;51.178;4.448;2023-04-25T13:28:27;4.78;;;1.00;;
25948;SDS011;13961;51.178;4.448;2023-04-25T13:30:53;5.53;;;1.20;;
25948;SDS011;13961;51.178;4.448;2023-04-25T13:33:19;5.18;;;1.02;;
25948;SDS011;13961;51.178;4.448;2023-04-25T13:35:46;4.05;;;1.10;;
25948;SDS011;13961;51.178;4.448;2023-04-25T13:40:47;4.95;;;1.10;;
25948;SDS011;13961;51.178;4.448;2023-04-25T13:43:14;5.50;;;1.00;;
25948;SDS011;13961;51.178;4.448;2023-04-25T13:45:39;13.80;;;1.73;;
25948;SDS011;13961;51.178;4.448;2023-04-25T13:48:06;5.07;;;0.90;;
25948;SDS011;13961;51.178;4.448;2023-04-25T13:50:32;4.30;;;0.88;;
25948;SDS011;13961;51.178;4.448;2023-04-25T13:52:58;5.28;;;1.02;;
25948;SDS011;13961;51.178;4.448;2023-04-25T13:55:24;3.17;;;0.80;;
25948;SDS011;13961;51.178;4.448;2023-04-25T13:57:49;3.47;;;0.90;;
25948;SDS011;13961;51.178;4.448;2023-04-25T14:00:15;3.38;;;0.93;;
25948;SDS011;13961;51.178;4.448;2023-04-25T14:02:41;2.78;;;0.82;;
25948;SDS011;13961;51.178;4.448;2023-04-25T14:05:08;4.28;;;1.02;;
25948;SDS011;13961;51.178;4.448;2023-04-25T14:07:34;4.07;;;0.85;;
25948;SDS011;13961;51.178;4.448;2023-04-25T14:10:00;4.95;;;1.35;;
25948;SDS011;13961;51.178;4.448;2023-04-25T14:12:28;4.88;;;1.02;;
25948;SDS011;13961;51.178;4.448;2023-04-25T14:14:54;5.35;;;0.88;;
25948;SDS011;13961;51.178;4.448;2023-04-25T14:17:22;2.65;;;0.80;;
25948;SDS011;13961;51.178;4.448;2023-04-25T14:19:49;4.80;;;1.10;;
25948;SDS011;13961;51.178;4.448;2023-04-25T14:22:16;2.90;;;0.63;;
25948;SDS011;13961;51.178;4.448;2023-04-25T14:24:42;5.90;;;0.90;;
25948;SDS011;13961;51.178;4.448;2023-04-25T14:27:09;2.45;;;0.90;;
25948;SDS011;13961;51.178;4.448;2023-04-25T14:29:35;10.07;;;1.23;;
25948;SDS011;13961;51.178;4.448;2023-04-25T14:32:02;3.33;;;0.77;;
25948;SDS011;13961;51.178;4.448;2023-04-25T14:34:27;4.95;;;1.00;;
25948;SDS011;13961;51.178;4.448;2023-04-25T14:36:53;4.40;;;0.93;;
25948;SDS011;13961;51.178;4.448;2023-04-25T14:39:19;3.60;;;1.08;;
25948;SDS011;13961;51.178;4.448;2023-04-25T14:41:46;4.40;;;0.90;;
25948;SDS011;13961;51.178;4.448;2023-04-25T14:44:11;5.65;;;1.20;;
25948;SDS011;13961;51.178;4.448;2023-04-25T14:46:37;6.75;;;1.67;;
25948;SDS011;13961;51.178;4.448;2023-04-25T14:49:03;6.78;;;1.15;;
25948;SDS011;13961;51.178;4.448;2023-04-25T14:51:29;3.28;;;0.90;;
25948;SDS011;13961;51.178;4.448;2023-04-25T14:53:56;3.90;;;1.20;;
25948;SDS011;13961;51.178;4.448;2023-04-25T14:56:21;6.45;;;1.23;;
25948;SDS011;13961;51.178;4.448;2023-04-25T14:58:48;5.72;;;1.33;;
25948;SDS011;13961;51.178;4.448;2023-04-25T15:01:15;4.32;;;1.02;;
25948;SDS011;13961;51.178;4.448;2023-04-25T15:03:41;7.80;;;1.25;;
25948;SDS011;13961;51.178;4.448;2023-04-25T15:06:06;4.90;;;1.10;;